Daily Reports
[Select Refresh to Update]
Updated Automatically by Ambient Software's Virtual Weather Station  V14.01


Daily Archive Report

Parameter                   Max   Max Time        Min   Min Time    Average
Wind Direction              358     5:35pm          0     2:36pm         90
Wind Speed                 18.0     2:29pm        0.0    12:04am        2.8
Wind Gust                  18.0     2:29pm        0.0     3:00am       11.0
Humidity                     95    10:05pm         63     2:24pm         78
Out Temp                   88.2     2:23pm       70.4     6:48pm       77.5
Raw Barometer             29.77    11:44pm      29.62     3:59pm      29.72
Dew Point                  76.0     1:45pm       65.7     1:09am       69.8


Today's  Data File

7/6/15
Time         Wind Dir   Wind Spd  Wind Gust   Humidity       Temp  Raw Barom  Dew Point Barom Rate Wind Spd H WindGust H Humidity H Temp Out H Humidity L Temp Out L  DailyRain   24HrRain
                            mph        mph          %         F         in         F      in/hr        mph        mph          %         F          %         F         in         in
12:00am            91        2.0       13.0         69       77.7      29.74       66.7      0.007       13.0       13.0         69       77.7         69       77.7       0.00       0.00
12:05am           100        3.0        6.0         69       77.6      29.74       66.6      0.006       13.0       13.0         69       77.7         69       77.6       0.00       0.00
12:10am            53        0.0        8.0         70       77.4      29.74       66.9      0.006       13.0       13.0         70       77.7         69       77.4       0.00       0.00
12:15am            81        0.0        8.0         70       77.2      29.74       66.7      0.001       13.0       13.0         70       77.7         69       77.2       0.00       0.00
12:20am            48        3.0       12.0         70       77.0      29.74       66.5      0.001       13.0       13.0         70       77.7         69       77.0       0.00       0.00
12:25am            59        1.0       12.0         71       76.8      29.74       66.7      0.001       13.0       13.0         71       77.7         69       76.8       0.00       0.00
12:30am            72        2.0       12.0         71       76.7      29.74       66.6      0.002       13.0       13.0         71       77.7         69       76.7       0.00       0.00
12:35am            50        5.0       12.0         71       76.7      29.74       66.6      0.002       13.0       13.0         71       77.7         69       76.7       0.00       0.00
12:40am            59        2.0       12.0         71       76.5      29.74       66.4      0.002       13.0       13.0         71       77.7         69       76.5       0.00       0.00
12:45am           118        1.0       12.0         71       76.3      29.75       66.2      0.012       13.0       13.0         71       77.7         69       76.3       0.00       0.00
12:50am            53        5.0       12.0         71       76.3      29.75       66.2      0.011       13.0       13.0         71       77.7         69       76.3       0.00       0.00
12:55am            80        5.0       12.0         71       76.1      29.75       66.0      0.010       13.0       13.0         71       77.7         69       76.1       0.00       0.00
1:00am             88        2.0       12.0         71       76.1      29.74       66.0      0.003       13.0       13.0         71       77.7         69       76.1       0.00       0.00
1:05am             63        2.0        7.0         71       76.0      29.74       65.9      0.002       13.0       13.0         71       77.7         69       76.0       0.00       0.00
1:10am            100        2.0       10.0         71       75.8      29.74       65.7      0.002       13.0       13.0         71       77.7         69       75.8       0.00       0.00
1:15am            104        0.0       10.0         72       75.8      29.74       66.1      0.000       13.0       13.0         72       77.7         69       75.8       0.00       0.00
1:20am             97        0.0       10.0         72       75.6      29.74       65.9      0.000       13.0       13.0         72       77.7         69       75.6       0.00       0.00
1:25am             60        3.0       10.0         72       75.4      29.74       65.8      0.000       13.0       13.0         72       77.7         69       75.4       0.00       0.00
1:30am             87        2.0       10.0         73       75.4      29.75       66.2      0.012       13.0       13.0         73       77.7         69       75.4       0.00       0.00
1:35am             84        0.0       10.0         73       75.4      29.75       66.2      0.011       13.0       13.0         73       77.7         69       75.4       0.00       0.00
1:40am             84        0.0       10.0         73       75.3      29.75       66.1      0.010       13.0       13.0         73       77.7         69       75.3       0.00       0.00
1:45am             76        6.0       10.0         73       75.3      29.75       66.1      0.012       13.0       13.0         73       77.7         69       75.3       0.00       0.00
1:50am            114        6.0       10.0         73       75.1      29.75       65.9      0.011       13.0       13.0         73       77.7         69       75.1       0.00       0.00
1:55am             84        1.0       10.0         74       75.1      29.75       66.3      0.010       13.0       13.0         74       77.7         69       75.1       0.00       0.00
2:00am             80        2.0       10.0         74       74.9      29.75       66.1      0.007       13.0       13.0         74       77.7         69       74.9       0.00       0.00
2:05am             97        2.0        8.0         74       75.1      29.75       66.3      0.006       13.0       13.0         74       77.7         69       74.9       0.00       0.00
2:10am             64        0.0        8.0         74       75.1      29.75       66.3      0.006       13.0       13.0         74       77.7         69       74.9       0.00       0.00
2:15am             83        0.0        8.0         74       75.1      29.75       66.3      0.001       13.0       13.0         74       77.7         69       74.9       0.00       0.00
2:20am             64        3.0        8.0         74       75.1      29.75       66.3      0.001       13.0       13.0         74       77.7         69       74.9       0.00       0.00
2:25am             86        3.0       10.0         74       75.1      29.75       66.3      0.001       13.0       13.0         74       77.7         69       74.9       0.00       0.00
2:30am            108        0.0       10.0         74       75.1      29.74       66.3     -0.011       13.0       13.0         75       77.7         69       74.9       0.00       0.00
2:35am             67        5.0       10.0         75       75.1      29.74       66.6     -0.010       13.0       13.0         75       77.7         69       74.9       0.00       0.00
2:40am             88        4.0       11.0         75       74.9      29.74       66.4     -0.009       13.0       13.0         75       77.7         69       74.9       0.00       0.00
2:45am             86        4.0       11.0         76       74.9      29.73       66.8     -0.012       13.0       13.0         76       77.7         69       74.9       0.00       0.00
2:50am             72        6.0       11.0         76       74.9      29.73       66.8     -0.011       13.0       13.0         76       77.7         69       74.9       0.00       0.00
2:55am            129        1.0       11.0         76       74.9      29.73       66.8     -0.010       13.0       13.0         76       77.7         69       74.9       0.00       0.00
3:00am             80        0.0       12.0         76       74.9      29.73       66.8     -0.012       13.0       13.0         76       77.7         69       74.9       0.00       0.00
3:05am            115        0.0        8.0         76       74.7      29.73       66.6     -0.011       13.0       13.0         76       77.7         69       74.7       0.00       0.00
3:10am             77        5.0        8.0         77       74.7      29.73       67.0     -0.010       13.0       13.0         77       77.7         69       74.7       0.00       0.00
3:15am             73        0.0        8.0         77       74.6      29.74       66.9     -0.000       13.0       13.0         77       77.7         69       74.6       0.00       0.00
3:20am             83        1.0       13.0         77       74.7      29.74       67.0     -0.000       13.0       13.0         77       77.7         69       74.6       0.00       0.00
3:25am             84        4.0       13.0         77       74.6      29.74       66.9     -0.000       13.0       13.0         77       77.7         69       74.6       0.00       0.00
3:30am             79        1.0       13.0         77       74.6      29.75       66.9      0.006       13.0       13.0         77       77.7         69       74.6       0.00       0.00
3:35am             77        0.0       13.0         78       74.6      29.75       67.3      0.005       13.0       13.0         78       77.7         69       74.6       0.00       0.00
3:40am             87        6.0       13.0         78       74.6      29.75       67.3      0.005       13.0       13.0         78       77.7         69       74.6       0.00       0.00
3:45am             62        6.0       13.0         78       74.6      29.74       67.3      0.001       13.0       13.0         78       77.7         69       74.6       0.00       0.00
3:50am             81        8.0       13.0         77       74.6      29.74       66.9      0.000       13.0       13.0         78       77.7         69       74.6       0.00       0.00
3:55am            105        5.0       13.0         77       74.4      29.74       66.7      0.000       13.0       13.0         78       77.7         69       74.4       0.00       0.00
4:00am            114        2.0       13.0         77       74.4      29.74       66.7      0.000       13.0       13.0         78       77.7         69       74.4       0.00       0.00
4:05am             83        6.0        8.0         78       74.4      29.74       67.1      0.000       13.0       13.0         78       77.7         69       74.4       0.00       0.00
4:10am             84        0.0        8.0         78       74.2      29.74       66.9      0.000       13.0       13.0         78       77.7         69       74.2       0.00       0.00
4:15am             80        0.0        8.0         78       74.2      29.74       66.9     -0.002       13.0       13.0         78       77.7         69       74.2       0.00       0.00
4:20am             72        4.0       10.0         78       74.2      29.74       66.9     -0.002       13.0       13.0         78       77.7         69       74.2       0.00       0.00
4:25am            122        4.0       10.0         78       74.0      29.74       66.7     -0.001       13.0       13.0         78       77.7         69       74.0       0.00       0.00
4:30am             73        0.0       10.0         79       74.0      29.73       67.1     -0.007       13.0       13.0         79       77.7         69       74.0       0.00       0.00
4:35am            110        5.0       10.0         79       74.0      29.73       67.1     -0.007       13.0       13.0         79       77.7         69       74.0       0.00       0.00
4:40am             84        7.0       10.0         79       74.0      29.73       67.1     -0.006       13.0       13.0         79       77.7         69       74.0       0.00       0.00
4:45am             79        3.0       10.0         79       74.0      29.72       67.1     -0.015       13.0       13.0         79       77.7         69       74.0       0.00       0.00
4:50am             83        1.0       10.0         79       74.0      29.72       67.1     -0.014       13.0       13.0         79       77.7         69       74.0       0.00       0.00
4:55am             81        0.0       10.0         80       74.0      29.72       67.4     -0.013       13.0       13.0         80       77.7         69       74.0       0.00       0.00
5:00am             76        1.0       10.0         80       74.0      29.72       67.4     -0.015       13.0       13.0         80       77.7         69       74.0       0.00       0.00
5:05am             77        3.0        9.0         80       74.2      29.72       67.6     -0.014       13.0       13.0         80       77.7         69       74.0       0.00       0.00
5:10am             77        0.0        9.0         80       74.2      29.72       67.6     -0.013       13.0       13.0         80       77.7         69       74.0       0.00       0.00
5:15am             76        3.0       10.0         80       74.2      29.72       67.6     -0.012       13.0       13.0         80       77.7         69       74.0       0.00       0.00
5:20am             76        0.0       10.0         80       74.2      29.72       67.6     -0.011       13.0       13.0         80       77.7         69       74.0       0.00       0.00
5:25am             77        0.0       10.0         80       74.2      29.72       67.6     -0.010       13.0       13.0         80       77.7         69       74.0       0.00       0.00
5:30am            103        2.0       10.0         80       74.4      29.72       67.8     -0.005       13.0       13.0         80       77.7         69       74.0       0.00       0.00
5:35am             66        5.0       10.0         80       74.4      29.72       67.8     -0.005       13.0       13.0         80       77.7         69       74.0       0.00       0.00
5:40am             67        3.0       10.0         80       74.6      29.72       68.0     -0.004       13.0       13.0         80       77.7         69       74.0       0.00       0.00
5:45am             81        0.0       10.0         80       74.6      29.73       68.0     -0.000       13.0       13.0         80       77.7         69       74.0       0.00       0.00
5:50am             64        0.0       10.0         80       74.6      29.73       68.0     -0.000       13.0       13.0         80       77.7         69       74.0       0.00       0.00
5:55am             33        0.0       10.0         80       74.6      29.73       68.0     -0.000       13.0       13.0         80       77.7         69       74.0       0.00       0.00
6:00am             86        1.0       10.0         80       74.6      29.73       68.0      0.004       13.0       13.0         80       77.7         69       74.0       0.00       0.00
6:05am            110        1.0        5.0         80       74.6      29.73       68.0      0.004       13.0       13.0         80       77.7         69       74.0       0.00       0.00
6:10am            110        0.0        5.0         80       74.6      29.73       68.0      0.003       13.0       13.0         80       77.7         69       74.0       0.00       0.00
6:15am             76        5.0        7.0         80       74.6      29.74       68.0      0.008       13.0       13.0         80       77.7         69       74.0       0.00       0.00
6:20am             81        1.0        7.0         80       74.6      29.74       68.0      0.007       13.0       13.0         80       77.7         69       74.0       0.00       0.00
6:25am             80        3.0        7.0         80       74.6      29.74       68.0      0.007       13.0       13.0         80       77.7         69       74.0       0.00       0.00
6:30am            118        0.0        7.0         81       74.6      29.74       68.4      0.008       13.0       13.0         81       77.7         69       74.0       0.00       0.00
6:35am             87        5.0        7.0         81       74.4      29.74       68.2      0.008       13.0       13.0         81       77.7         69       74.0       0.00       0.00
6:40am             88        0.0        7.0         81       74.4      29.74       68.2      0.007       13.0       13.0         81       77.7         69       74.0       0.00       0.00
6:45am             84        0.0        7.0         81       74.4      29.74       68.2      0.011       13.0       13.0         81       77.7         69       74.0       0.00       0.00
6:50am             83        1.0        7.0         81       74.4      29.74       68.2      0.010       13.0       13.0         81       77.7         69       74.0       0.00       0.00
6:55am             83        0.0        7.0         81       74.6      29.74       68.4      0.010       13.0       13.0         81       77.7         69       74.0       0.00       0.00
7:00am             73        0.0        7.0         81       74.6      29.75       68.4      0.012       13.0       13.0         81       77.7         69       74.0       0.00       0.00
7:05am             79        0.0        2.0         82       74.6      29.75       68.7      0.011       13.0       13.0         82       77.7         69       74.0       0.00       0.00
7:10am             96        2.0        6.0         82       74.6      29.75       68.7      0.010       13.0       13.0         82       77.7         69       74.0       0.00       0.00
7:15am             96        3.0        6.0         82       74.7      29.74       68.8      0.006       13.0       13.0         82       77.7         69       74.0       0.00       0.00
7:20am             72        0.0        6.0         82       74.7      29.74       68.8      0.006       13.0       13.0         82       77.7         69       74.0       0.00       0.00
7:25am             72        0.0        6.0         82       74.9      29.74       69.0      0.005       13.0       13.0         82       77.7         69       74.0       0.00       0.00
7:30am             79        0.0        8.0         81       75.3      29.74       69.1      0.002       13.0       13.0         82       77.7         69       74.0       0.00       0.00
7:35am             79        5.0        8.0         81       75.4      29.74       69.2      0.002       13.0       13.0         82       77.7         69       74.0       0.00       0.00
7:40am            118        2.0       12.0         81       75.8      29.74       69.6      0.002       13.0       13.0         82       77.7         69       74.0       0.00       0.00
7:45am            117        3.0       12.0         80       75.8      29.75       69.2      0.006       13.0       13.0         82       77.7         69       74.0       0.00       0.00
7:50am            118        0.0       12.0         80       76.1      29.75       69.5      0.006       13.0       13.0         82       77.7         69       74.0       0.00       0.00
7:55am            120        5.0       12.0         80       76.5      29.75       69.9      0.005       13.0       13.0         82       77.7         69       74.0       0.00       0.00
8:00am             63        3.0       12.0         79       76.5      29.75       69.5      0.008       13.0       13.0         82       77.7         69       74.0       0.00       0.00
8:05am            127        4.0        8.0         80       76.8      29.75       70.2      0.007       13.0       13.0         82       77.7         69       74.0       0.00       0.00
8:10am            118        2.0        9.0         79       77.0      29.75       70.0      0.007       13.0       13.0         82       77.7         69       74.0       0.00       0.00
8:15am             98        1.0        9.0         78       77.4      29.75       70.0      0.006       13.0       13.0         82       77.7         69       74.0       0.00       0.00
8:20am             81        2.0        9.0         77       77.7      29.75       69.9      0.006       13.0       13.0         82       77.7         69       74.0       0.00       0.00
8:25am             84        2.0       10.0         77       78.1      29.75       70.3      0.005       13.0       13.0         82       78.1         69       74.0       0.00       0.00
8:30am             83        3.0       10.0         76       78.3      29.75       70.1      0.005       13.0       13.0         82       78.3         69       74.0       0.00       0.00
8:35am            127        7.0       10.0         76       78.5      29.75       70.3      0.004       13.0       13.0         82       78.5         69       74.0       0.00       0.00
8:40am             90        6.0       10.0         76       78.6      29.75       70.4      0.004       13.0       13.0         82       78.6         69       74.0       0.00       0.00
8:45am             76        0.0       11.0         76       78.5      29.76       70.3      0.016       13.0       13.0         82       78.6         69       74.0       0.00       0.00
8:50am             84        0.0       11.0         76       78.3      29.76       70.1      0.014       13.0       13.0         82       78.6         69       74.0       0.00       0.00
8:55am             86        2.0       11.0         77       78.3      29.76       70.5      0.013       13.0       13.0         82       78.6         69       74.0       0.00       0.00
9:00am             98        1.0       11.0         77       78.3      29.76       70.5      0.012       13.0       13.0         82       78.6         69       74.0       0.00       0.00
9:05am             79        1.0        8.0         77       78.1      29.76       70.3      0.011       13.0       13.0         82       78.6         69       74.0       0.00       0.00
9:10am             81        3.0        8.0         77       78.1      29.76       70.3      0.010       13.0       13.0         82       78.6         69       74.0       0.00       0.00
9:15am             72        0.0        8.0         77       77.9      29.76       70.1      0.006       13.0       13.0         82       78.6         69       74.0       0.00       0.00
9:20am             91        5.0        8.0         77       78.1      29.76       70.3      0.005       13.0       13.0         82       78.6         69       74.0       0.00       0.00
9:25am             56        2.0        8.0         77       78.1      29.76       70.3      0.005       13.0       13.0         82       78.6         69       74.0       0.00       0.00
9:30am             55        1.0        8.0         77       78.5      29.76       70.7      0.004       13.0       13.0         82       78.6         69       74.0       0.00       0.00
9:35am             43        8.0       10.0         76       79.0      29.76       70.8      0.004       13.0       13.0         82       79.0         69       74.0       0.00       0.00
9:40am            110        8.0       11.0         76       79.6      29.76       71.4      0.004       13.0       13.0         82       79.6         69       74.0       0.00       0.00
9:45am             88        3.0       11.0         75       79.9      29.75       71.3      0.000       13.0       13.0         82       79.9         69       74.0       0.00       0.00
9:50am             88        2.0       11.0         75       80.5      29.75       71.9      0.000       13.0       13.0         82       80.5         69       74.0       0.00       0.00
9:55am            118        1.0       11.0         74       80.7      29.75       71.6      0.000       13.0       13.0         82       80.7         69       74.0       0.00       0.00
10:00am            88        6.0       11.0         73       81.2      29.75       71.7      0.000       13.0       13.0         82       81.2         69       74.0       0.00       0.00
10:05am           146        2.0       10.0         73       81.2      29.75       71.7      0.000       13.0       13.0         82       81.2         69       74.0       0.00       0.00
10:10am            91        4.0       10.0         73       81.2      29.75       71.7      0.000       13.0       13.0         82       81.4         69       74.0       0.00       0.00
10:15am            59        5.0       11.0         73       81.1      29.75       71.6      0.000       13.0       13.0         82       81.4         69       74.0       0.00       0.00
10:20am            84        6.0       11.0         73       81.1      29.75       71.6      0.000       13.0       13.0         82       81.4         69       74.0       0.00       0.00
10:25am            70        6.0       11.0         73       81.1      29.75       71.6      0.000       13.0       13.0         82       81.4         69       74.0       0.00       0.00
10:30am            91        2.0       11.0         73       81.1      29.75       71.6      0.000       13.0       13.0         82       81.4         69       74.0       0.00       0.00
10:35am            88        7.0       11.0         74       81.4      29.75       72.3      0.000       13.0       13.0         82       81.4         69       74.0       0.00       0.00
10:40am            88        2.0       11.0         72       81.4      29.75       71.5      0.000       13.0       13.0         82       81.4         69       74.0       0.00       0.00
10:45am           138        6.0       11.0         72       81.6      29.75       71.7     -0.001       13.0       13.0         82       81.6         69       74.0       0.00       0.00
10:50am           124        1.0       11.0         73       82.0      29.75       72.5     -0.001       13.0       13.0         82       82.0         69       74.0       0.00       0.00
10:55am            90        3.0       11.0         73       82.4      29.75       72.9     -0.001       13.0       13.0         82       82.4         69       74.0       0.00       0.00
11:00am            46        5.0       11.0         71       82.8      29.75       72.4     -0.007       13.0       13.0         82       82.8         69       74.0       0.00       0.00
11:05am            86       10.0       12.0         70       82.6      29.75       71.8     -0.006       13.0       13.0         82       83.0         69       74.0       0.00       0.00
11:10am            76        1.0       12.0         73       83.0      29.75       73.5     -0.006       13.0       13.0         82       83.0         69       74.0       0.00       0.00
11:15am           110        9.0       12.0         72       83.2      29.74       73.2     -0.010       13.0       13.0         82       83.2         69       74.0       0.00       0.00
11:20am            60        4.0       13.0         71       83.0      29.74       72.6     -0.009       13.0       13.0         82       83.2         69       74.0       0.00       0.00
11:25am           105        2.0       13.0         71       83.2      29.74       72.8     -0.008       13.0       13.0         82       83.2         69       74.0       0.00       0.00
11:30am            52        7.0       13.0         72       83.6      29.74       73.6     -0.012       13.0       13.0         82       83.6         69       74.0       0.00       0.00
11:35am            43        7.0       13.0         71       83.6      29.74       73.2     -0.011       13.0       13.0         82       83.6         69       74.0       0.00       0.00
11:40am            64        2.0       13.0         70       83.6      29.74       72.8     -0.010       13.0       13.0         82       83.6         69       74.0       0.00       0.00
11:45am            83        2.0       13.0         70       83.6      29.73       72.8     -0.013       13.0       13.0         82       83.8         69       74.0       0.00       0.00
11:50am            81        7.0       13.0         70       83.4      29.73       72.6     -0.012       13.0       13.0         82       83.8         69       74.0       0.00       0.00
11:55am            79        3.0       13.0         71       83.2      29.73       72.8     -0.011       13.0       13.0         82       83.8         69       74.0       0.00       0.00
12:00pm            38        6.0       13.0         72       83.2      29.73       73.2     -0.011       13.0       13.0         82       83.8         69       74.0       0.00       0.00
12:05pm            86        2.0       12.0         71       83.2      29.73       72.8     -0.010       13.0       13.0         82       83.8         69       74.0       0.00       0.00
12:10pm            79        3.0       12.0         71       83.6      29.73       73.2     -0.009       13.0       13.0         82       83.8         69       74.0       0.00       0.00
12:15pm            63        5.0       13.0         71       84.3      29.72       73.9     -0.018       13.0       13.0         82       84.3         69       74.0       0.00       0.00
12:20pm           125        1.0       13.0         71       84.9      29.72       74.5     -0.016       13.0       13.0         82       84.9         69       74.0       0.00       0.00
12:25pm            88        6.0       16.0         69       85.1      29.72       73.8     -0.015       16.0       16.0         82       85.3         69       74.0       0.00       0.00
12:30pm           145        5.0       16.0         69       85.3      29.72       74.0     -0.015       16.0       16.0         82       85.3         69       74.0       0.00       0.00
12:35pm           103        6.0       16.0         70       85.5      29.72       74.6     -0.013       16.0       16.0         82       85.5         68       74.0       0.00       0.00
12:40pm            50        6.0       16.0         70       85.5      29.72       74.6     -0.012       16.0       16.0         82       85.5         68       74.0       0.00       0.00
12:45pm           108       10.0       16.0         70       85.5      29.72       74.6     -0.010       16.0       16.0         82       85.5         68       74.0       0.00       0.00
12:50pm           125        5.0       16.0         68       85.5      29.72       73.7     -0.010       16.0       16.0         82       85.5         67       74.0       0.00       0.00
12:55pm            77       10.0       16.0         68       85.5      29.72       73.7     -0.009       16.0       16.0         82       85.5         67       74.0       0.00       0.00
1:00pm            155       10.0       16.0         70       85.5      29.72       74.6     -0.013       16.0       16.0         82       85.5         67       74.0       0.00       0.00
1:05pm             72        3.0       12.0         68       85.7      29.72       73.9     -0.012       16.0       16.0         82       85.7         67       74.0       0.00       0.00
1:10pm             83        7.0       13.0         67       86.1      29.72       73.9     -0.011       16.0       16.0         82       86.1         67       74.0       0.00       0.00
1:15pm             48        7.0       13.0         68       86.1      29.71       74.3     -0.015       16.0       16.0         82       86.1         67       74.0       0.00       0.00
1:20pm             96        2.0       13.0         67       86.3      29.71       74.1     -0.014       16.0       16.0         82       86.3         67       74.0       0.00       0.00
1:25pm             42        3.0       13.0         67       86.5      29.71       74.2     -0.013       16.0       16.0         82       86.5         67       74.0       0.00       0.00
1:30pm             53        8.0       13.0         68       86.5      29.71       74.7     -0.020       16.0       16.0         82       86.5         67       74.0       0.00       0.00
1:35pm             53        6.0       13.0         68       86.7      29.71       74.9     -0.018       16.0       16.0         82       86.7         67       74.0       0.00       0.00
1:40pm             83       11.0       17.0         67       87.0      29.71       74.7     -0.017       17.0       17.0         82       87.0         67       74.0       0.00       0.00
1:45pm            111        5.0       17.0         67       87.2      29.70       74.9     -0.021       17.0       17.0         82       87.2         65       74.0       0.00       0.00
1:50pm             24        9.0       17.0         66       87.4      29.70       74.7     -0.019       17.0       17.0         82       87.4         65       74.0       0.00       0.00
1:55pm             32       14.0       17.0         66       87.6      29.70       74.8     -0.018       17.0       17.0         82       87.6         65       74.0       0.00       0.00
2:00pm             45       11.0       17.0         67       87.6      29.69       75.3     -0.024       17.0       17.0         82       87.6         64       74.0       0.00       0.00
2:05pm            124        7.0       12.0         66       87.2      29.69       74.5     -0.022       17.0       17.0         82       87.6         64       74.0       0.00       0.00
2:10pm             77       12.0       13.0         66       87.4      29.69       74.7     -0.021       17.0       17.0         82       87.6         64       74.0       0.00       0.00
2:15pm             52        8.0       13.0         65       87.6      29.68       74.4     -0.027       17.0       17.0         82       87.6         64       74.0       0.00       0.00
2:20pm             73        5.0       16.0         65       88.0      29.68       74.8     -0.025       17.0       17.0         82       88.0         64       74.0       0.00       0.00
2:25pm             46       10.0       16.0         63       88.0      29.68       73.8     -0.023       17.0       17.0         82       88.2         63       74.0       0.00       0.00
2:30pm             60        8.0       18.0         65       88.0      29.68       74.8     -0.027       18.0       18.0         82       88.2         63       74.0       0.00       0.00
2:35pm             55        5.0       18.0         65       88.0      29.68       74.8     -0.025       18.0       18.0         82       88.2         63       74.0       0.00       0.00
2:40pm             52       10.0       18.0         64       87.8      29.68       74.1     -0.023       18.0       18.0         82       88.2         63       74.0       0.00       0.00
2:45pm             86        6.0       18.0         66       88.0      29.67       75.2     -0.031       18.0       18.0         82       88.2         63       74.0       0.00       0.00
2:50pm             90        4.0       18.0         65       88.0      29.67       74.8     -0.028       18.0       18.0         82       88.2         63       74.0       0.00       0.00
2:55pm             77        7.0       18.0         65       87.6      29.67       74.4     -0.026       18.0       18.0         82       88.2         63       74.0       0.00       0.00
3:00pm             96        7.0       18.0         66       87.6      29.65       74.8     -0.044       18.0       18.0         82       88.2         63       74.0       0.00       0.00
3:05pm             39       11.0       16.0         68       87.4      29.65       75.5     -0.040       18.0       18.0         82       88.2         63       74.0       0.00       0.00
3:10pm             62        4.0       16.0         65       87.2      29.65       74.0     -0.037       18.0       18.0         82       88.2         63       74.0       0.00       0.00
3:15pm             93        2.0       16.0         67       87.6      29.64       75.3     -0.045       18.0       18.0         82       88.2         63       74.0       0.00       0.00
3:20pm             32        8.0       16.0         64       87.6      29.64       73.9     -0.041       18.0       18.0         82       88.2         63       74.0       0.00       0.00
3:25pm            134        7.0       16.0         66       87.8      29.64       75.0     -0.038       18.0       18.0         82       88.2         63       74.0       0.00       0.00
3:30pm            103        7.0       16.0         65       87.6      29.65       74.4     -0.025       18.0       18.0         82       88.2         63       74.0       0.00       0.00
3:35pm            112        5.0       16.0         65       87.6      29.65       74.4     -0.023       18.0       18.0         82       88.2         63       74.0       0.00       0.00
3:40pm             74       12.0       17.0         64       87.4      29.65       73.7     -0.021       18.0       18.0         82       88.2         63       74.0       0.00       0.00
3:45pm             46        6.0       17.0         66       87.0      29.63       74.3     -0.039       18.0       18.0         82       88.2         63       74.0       0.00       0.00
3:50pm             86       11.0       17.0         67       86.7      29.63       74.4     -0.036       18.0       18.0         82       88.2         63       74.0       0.00       0.00
3:55pm             77       10.0       17.0         67       86.5      29.63       74.2     -0.033       18.0       18.0         82       88.2         63       74.0       0.00       0.00
4:00pm             98        2.0       17.0         67       86.1      29.62       73.9     -0.041       18.0       18.0         82       88.2         63       74.0       0.00       0.00
4:05pm             90        6.0       14.0         67       85.9      29.62       73.7     -0.038       18.0       18.0         82       88.2         63       74.0       0.00       0.00
4:10pm             32        8.0       14.0         68       85.7      29.62       73.9     -0.035       18.0       18.0         82       88.2         63       74.0       0.00       0.00
4:15pm            118        5.0       14.0         68       85.7      29.66       73.9      0.010       18.0       18.0         82       88.2         63       74.0       0.00       0.00
4:20pm             87        5.0       14.0         68       85.5      29.66       73.7      0.009       18.0       18.0         82       88.2         63       74.0       0.00       0.00
4:25pm             45        8.0       14.0         68       85.5      29.66       73.7      0.009       18.0       18.0         82       88.2         63       74.0       0.00       0.00
4:30pm             56        3.0       14.0         67       85.3      29.66       73.1      0.009       18.0       18.0         82       88.2         63       74.0       0.00       0.00
4:35pm             90        2.0       14.0         67       85.1      29.66       72.9      0.008       18.0       18.0         82       88.2         63       74.0       0.00       0.00
4:40pm             73        1.0       14.0         67       85.1      29.66       72.9      0.007       18.0       18.0         82       88.2         63       74.0       0.00       0.00
4:45pm            100       10.0       18.0         67       85.1      29.66       72.9      0.005       18.0       18.0         82       88.2         63       74.0       0.00       0.00
4:50pm             63       14.0       18.0         67       85.1      29.66       72.9      0.005       18.0       18.0         82       88.2         63       74.0       0.00       0.00
4:55pm             52        5.0       18.0         67       85.1      29.66       72.9      0.004       18.0       18.0         82       88.2         63       74.0       0.00       0.00
5:00pm             38        0.0       18.0         67       85.1      29.67       72.9      0.011       18.0       18.0         82       88.2         63       74.0       0.00       0.00
5:05pm             39        0.0        3.0         68       84.9      29.67       73.2      0.010       18.0       18.0         82       88.2         63       74.0       0.00       0.00
5:10pm             97        3.0        8.0         68       84.9      29.67       73.2      0.009       18.0       18.0         82       88.2         63       74.0       0.00       0.00
5:15pm            101        0.0       11.0         67       84.9      29.69       72.7      0.031       18.0       18.0         82       88.2         63       74.0       0.00       0.00
5:20pm             62        0.0       11.0         68       84.9      29.69       73.2      0.028       18.0       18.0         82       88.2         63       74.0       0.00       0.00
5:25pm            258        3.0       11.0         63       83.4      29.69       69.5      0.026       18.0       18.0         82       88.2         63       74.0       0.00       0.00
5:30pm            252        0.0       11.0         67       80.7      29.72       68.7      0.057       18.0       18.0         82       88.2         63       74.0       0.00       0.00
5:35pm            254        1.0       11.0         71       78.6      29.72       68.4      0.052       18.0       18.0         82       88.2         63       74.0       0.00       0.00
5:40pm            256        6.0       13.0         77       77.2      29.72       69.4      0.048       18.0       18.0         82       88.2         63       74.0       0.00       0.00
5:45pm            251        4.0       13.0         80       75.6      29.75       69.0      0.070       18.0       18.0         82       88.2         63       74.0       0.00       0.00
5:50pm            288        2.0       13.0         82       74.6      29.75       68.7      0.064       18.0       18.0         82       88.2         63       74.0       0.00       0.00
5:55pm            273        7.0       16.0         84       74.0      29.75       68.9      0.059       18.0       18.0         84       88.2         63       74.0       0.00       0.00
6:00pm            262        6.0       16.0         84       72.8      29.74       67.7      0.045       18.0       18.0         84       88.2         63       72.8       0.00       0.00
6:05pm            285        2.0       12.0         85       71.8      29.74       67.1      0.042       18.0       18.0         85       88.2         63       71.8       0.00       0.00
6:10pm            245        3.0       13.0         87       71.3      29.74       67.2      0.038       18.0       18.0         87       88.2         63       71.3       0.00       0.00
6:15pm            283        0.0       13.0         88       71.1      29.69       67.4     -0.007       18.0       18.0         88       88.2         63       71.1       0.00       0.00
6:20pm             32        2.0       13.0         89       70.9      29.69       67.5     -0.006       18.0       18.0         89       88.2         63       70.9       0.00       0.00
6:25pm             49        4.0       13.0         89       70.8      29.69       67.4     -0.006       18.0       18.0         89       88.2         63       70.8       0.00       0.00
6:30pm            117        3.0       13.0         90       70.8      29.73       67.7      0.027       18.0       18.0         90       88.2         63       70.8       0.00       0.00
6:35pm             96        0.0       13.0         90       70.8      29.73       67.7      0.025       18.0       18.0         90       88.2         63       70.8       0.00       0.00
6:40pm             88        0.0       13.0         91       70.6      29.73       67.8      0.023       18.0       18.0         91       88.2         63       70.6       0.00       0.00
6:45pm             88        0.0       13.0         91       70.6      29.72       67.8      0.013       18.0       18.0         91       88.2         63       70.6       0.00       0.00
6:50pm             88        0.0       13.0         92       70.4      29.72       68.0      0.012       18.0       18.0         92       88.2         63       70.4       0.00       0.00
6:55pm             88        0.0       13.0         92       70.4      29.72       68.0      0.011       18.0       18.0         92       88.2         63       70.4       0.00       0.00
7:00pm             88        0.0       13.0         92       70.4      29.72       68.0      0.009       18.0       18.0         92       88.2         63       70.4       0.00       0.00
7:05pm             88        0.0        0.0         92       70.4      29.72       68.0      0.009       18.0       18.0         92       88.2         63       70.4       0.00       0.00
7:10pm             88        0.0        0.0         92       70.4      29.72       68.0      0.008       18.0       18.0         92       88.2         63       70.4       0.00       0.00
7:15pm             88        0.0        0.0         92       70.4      29.73       68.0      0.013       18.0       18.0         92       88.2         63       70.4       0.00       0.00
7:20pm             88        0.0        0.0         92       70.4      29.73       68.0      0.012       18.0       18.0         93       88.2         63       70.4       0.00       0.00
7:25pm             88        0.0        0.0         93       70.4      29.73       68.3      0.011       18.0       18.0         93       88.2         63       70.4       0.00       0.00
7:30pm             88        0.0        0.0         93       70.4      29.72       68.3      0.003       18.0       18.0         93       88.2         63       70.4       0.00       0.00
7:35pm             88        0.0        0.0         92       70.4      29.72       68.0      0.003       18.0       18.0         93       88.2         63       70.4       0.00       0.00
7:40pm             88        0.0        0.0         93       70.4      29.72       68.3      0.003       18.0       18.0         93       88.2         63       70.4       0.00       0.00
7:45pm             88        0.0        0.0         93       70.4      29.71       68.3     -0.001       18.0       18.0         93       88.2         63       70.4       0.00       0.00
7:50pm             88        0.0        1.0         93       70.4      29.71       68.3     -0.001       18.0       18.0         93       88.2         63       70.4       0.00       0.00
7:55pm             88        0.0        1.0         93       70.4      29.71       68.3     -0.001       18.0       18.0         93       88.2         63       70.4       0.00       0.00
8:00pm             88        0.0        1.0         93       70.4      29.71       68.3     -0.008       18.0       18.0         93       88.2         63       70.4       0.00       0.00
8:05pm             88        0.0        1.0         93       70.6      29.71       68.5     -0.007       18.0       18.0         93       88.2         63       70.4       0.00       0.00
8:10pm             88        0.0        1.0         93       70.6      29.71       68.5     -0.007       18.0       18.0         93       88.2         63       70.4       0.00       0.00
8:15pm             88        0.0        1.0         93       70.6      29.70       68.5     -0.012       18.0       18.0         93       88.2         63       70.4       0.00       0.00
8:20pm             88        0.0        1.0         93       70.6      29.70       68.5     -0.011       18.0       18.0         93       88.2         63       70.4       0.00       0.00
8:25pm             88        0.0        1.0         93       70.6      29.70       68.5     -0.010       18.0       18.0         93       88.2         63       70.4       0.00       0.00
8:30pm             88        0.0        1.0         94       70.6      29.71       68.8      0.001       18.0       18.0         94       88.2         63       70.4       0.00       0.00
8:35pm             88        0.0        1.0         94       70.6      29.71       68.8      0.001       18.0       18.0         94       88.2         63       70.4       0.00       0.00
8:40pm             97        0.0        1.0         94       70.6      29.71       68.8      0.001       18.0       18.0         94       88.2         63       70.4       0.00       0.00
8:45pm             26        0.0        1.0         94       70.6      29.72       68.8      0.006       18.0       18.0         94       88.2         63       70.4       0.00       0.00
8:50pm             25        0.0        1.0         94       70.6      29.72       68.8      0.006       18.0       18.0         94       88.2         63       70.4       0.00       0.00
8:55pm             25        0.0        1.0         94       70.6      29.72       68.8      0.005       18.0       18.0         94       88.2         63       70.4       0.00       0.00
9:00pm             25        0.0        1.0         94       70.6      29.71       68.8      0.001       18.0       18.0         94       88.2         63       70.4       0.00       0.00
9:05pm             25        0.0        0.0         94       70.6      29.71       68.8      0.001       18.0       18.0         94       88.2         63       70.4       0.00       0.00
9:10pm             25        0.0        0.0         94       70.4      29.71       68.6      0.001       18.0       18.0         94       88.2         63       70.4       0.00       0.00
9:15pm             25        0.0        0.0         94       70.4      29.71       68.6      0.002       18.0       18.0         94       88.2         63       70.4       0.00       0.00
9:20pm             25        0.0        0.0         94       70.6      29.71       68.8      0.001       18.0       18.0         94       88.2         63       70.4       0.00       0.00
9:25pm             25        0.0        0.0         94       70.4      29.71       68.6      0.001       18.0       18.0         94       88.2         63       70.4       0.00       0.00
9:30pm             25        0.0        0.0         94       70.4      29.71       68.6     -0.007       18.0       18.0         94       88.2         63       70.4       0.00       0.00
9:35pm             25        0.0        0.0         94       70.6      29.71       68.8     -0.006       18.0       18.0         94       88.2         63       70.4       0.00       0.00
9:40pm             25        0.0        0.0         94       70.6      29.71       68.8     -0.006       18.0       18.0         94       88.2         63       70.4       0.00       0.00
9:45pm             25        0.0        0.0         94       70.6      29.69       68.8     -0.019       18.0       18.0         94       88.2         63       70.4       0.00       0.00
9:50pm             25        0.0        0.0         94       70.6      29.69       68.8     -0.017       18.0       18.0         94       88.2         63       70.4       0.00       0.00
9:55pm             25        0.0        0.0         94       70.6      29.69       68.8     -0.016       18.0       18.0         94       88.2         63       70.4       0.00       0.00
10:00pm            25        0.0        0.0         94       70.6      29.71       68.8      0.007       18.0       18.0         94       88.2         63       70.4       0.00       0.00
10:05pm            25        0.0        0.0         94       70.8      29.71       69.0      0.006       18.0       18.0         94       88.2         63       70.4       0.00       0.00
10:10pm            25        0.0        0.0         95       70.8      29.71       69.3      0.006       18.0       18.0         95       88.2         63       70.4       0.00       0.00
10:15pm            25        0.0        0.0         95       70.9      29.73       69.4      0.017       18.0       18.0         95       88.2         63       70.4       0.00       0.00
10:20pm            25        0.0        0.0         95       70.9      29.73       69.4      0.016       18.0       18.0         95       88.2         63       70.4       0.00       0.00
10:25pm            25        0.0        0.0         95       70.9      29.73       69.4      0.015       18.0       18.0         95       88.2         63       70.4       0.00       0.00
10:30pm            25        0.0        0.0         95       70.9      29.73       69.4      0.021       18.0       18.0         95       88.2         63       70.4       0.00       0.00
10:35pm            25        0.0        0.0         95       70.9      29.73       69.4      0.020       18.0       18.0         95       88.2         63       70.4       0.00       0.00
10:40pm            25        0.0        1.0         95       70.9      29.73       69.4      0.018       18.0       18.0         95       88.2         63       70.4       0.00       0.00
10:45pm            24        1.0        3.0         95       70.9      29.75       69.4      0.028       18.0       18.0         95       88.2         63       70.4       0.00       0.00
10:50pm            24        0.0        3.0         95       70.9      29.75       69.4      0.026       18.0       18.0         95       88.2         63       70.4       0.00       0.00
10:55pm            24        0.0        3.0         95       70.9      29.75       69.4      0.024       18.0       18.0         95       88.2         63       70.4       0.00       0.00
11:00pm            24        0.0        3.0         95       70.9      29.76       69.4      0.036       18.0       18.0         95       88.2         63       70.4       0.00       0.00
11:05pm            24        0.0        5.0         95       70.8      29.76       69.3      0.033       18.0       18.0         95       88.2         63       70.4       0.00       0.00
11:10pm            24        0.0        5.0         95       70.8      29.76       69.3      0.030       18.0       18.0         95       88.2         63       70.4       0.00       0.00
11:15pm            24        0.0        5.0         95       70.8      29.76       69.3      0.030       18.0       18.0         95       88.2         63       70.4       0.00       0.00
11:20pm            24        0.0        5.0         95       70.8      29.76       69.3      0.027       18.0       18.0         95       88.2         63       70.4       0.00       0.00
11:25pm            24        0.0        5.0         95       70.8      29.76       69.3      0.025       18.0       18.0         95       88.2         63       70.4       0.00       0.00
11:30pm            24        0.0        5.0         95       70.8      29.76       69.3      0.024       18.0       18.0         95       88.2         63       70.4       0.00       0.00
11:35pm            24        0.0        5.0         95       70.8      29.76       69.3      0.022       18.0       18.0         95       88.2         63       70.4       0.00       0.00
11:40pm            24        0.0        5.0         95       70.8      29.76       69.3      0.021       18.0       18.0         95       88.2         63       70.4       0.00       0.00
11:45pm            24        0.0        5.0         95       70.8      29.77       69.3      0.027       18.0       18.0         95       88.2         63       70.4       0.00       0.00
11:50pm            24        0.0        5.0         95       70.6      29.77       69.1      0.025       18.0       18.0         95       88.2         63       70.4       0.00       0.00
11:55pm            24        0.0        5.0         95       70.8      29.77       69.3      0.023       18.0       18.0         95       88.2         63       70.4       0.00       0.00


Yesterday's Data File

7/5/15
Time         Wind Dir   Wind Spd  Wind Gust   Humidity       Temp  Raw Barom  Dew Point Barom Rate Wind Spd H WindGust H Humidity H Temp Out H Humidity L Temp Out L  DailyRain   24HrRain
                            mph        mph          %         F         in         F      in/hr        mph        mph          %         F          %         F         in         in
12:00am           347        0.0        0.0         85       68.1      29.84       63.4      0.017        0.0        0.0         85       68.1         85       68.1       0.00       0.00
12:05am           347        0.0        0.0         85       67.9      29.84       63.2      0.016        0.0        0.0         85       68.1         85       67.9       0.00       0.00
12:10am           347        0.0        0.0         86       67.9      29.84       63.6      0.014        0.0        0.0         86       68.1         85       67.9       0.00       0.00
12:15am           347        0.0        0.0         86       67.8      29.85       63.5      0.016        0.0        0.0         86       68.1         85       67.8       0.00       0.00
12:20am           347        0.0        0.0         86       67.8      29.85       63.5      0.015        0.0        0.0         86       68.1         85       67.8       0.00       0.00
12:25am           347        0.0        0.0         86       67.6      29.85       63.3      0.014        0.0        0.0         86       68.1         85       67.6       0.00       0.00
12:30am           347        0.0        0.0         86       67.6      29.85       63.3      0.018        0.0        0.0         86       68.1         85       67.6       0.00       0.00
12:35am           347        0.0        0.0         87       67.4      29.85       63.4      0.016        0.0        0.0         87       68.1         85       67.4       0.00       0.00
12:40am           347        0.0        0.0         87       67.4      29.85       63.4      0.015        0.0        0.0         87       68.1         85       67.4       0.00       0.00
12:45am           347        0.0        0.0         87       67.3      29.85       63.3      0.014        0.0        0.0         87       68.1         85       67.3       0.00       0.00
12:50am           347        0.0        0.0         87       67.3      29.85       63.3      0.013        0.0        0.0         87       68.1         85       67.3       0.00       0.00
12:55am           347        0.0        0.0         88       67.1      29.85       63.4      0.012        0.0        0.0         88       68.1         85       67.1       0.00       0.00
1:00am            347        0.0        0.0         88       67.1      29.85       63.4      0.011        0.0        0.0         88       68.1         85       67.1       0.00       0.00
1:05am            347        0.0        0.0         88       66.9      29.85       63.2      0.010        0.0        0.0         88       68.1         85       66.9       0.00       0.00
1:10am            347        0.0        0.0         88       66.8      29.85       63.1      0.009        0.0        0.0         88       68.1         85       66.8       0.00       0.00
1:15am            347        0.0        0.0         88       66.8      29.85       63.1      0.004        0.0        0.0         88       68.1         85       66.8       0.00       0.00
1:20am            347        0.0        0.0         89       66.6      29.85       63.3      0.004        0.0        0.0         89       68.1         85       66.6       0.00       0.00
1:25am            347        0.0        0.0         89       66.6      29.85       63.3      0.004        0.0        0.0         89       68.1         85       66.6       0.00       0.00
1:30am            347        0.0        0.0         89       66.4      29.85       63.1      0.005        0.0        0.0         89       68.1         85       66.4       0.00       0.00
1:35am            347        0.0        0.0         89       66.6      29.85       63.3      0.005        0.0        0.0         89       68.1         85       66.4       0.00       0.00
1:40am            347        0.0        0.0         89       66.8      29.85       63.5      0.005        0.0        0.0         89       68.1         85       66.4       0.00       0.00
1:45am            347        0.0        0.0         90       66.8      29.85       63.8      0.001        0.0        0.0         90       68.1         85       66.4       0.00       0.00
1:50am            347        0.0        0.0         90       66.8      29.85       63.8      0.001        0.0        0.0         90       68.1         85       66.4       0.00       0.00
1:55am            347        0.0        0.0         90       66.8      29.85       63.8      0.001        0.0        0.0         90       68.1         85       66.4       0.00       0.00
2:00am            347        0.0        0.0         90       66.6      29.85       63.6      0.001        0.0        0.0         90       68.1         85       66.4       0.00       0.00
2:05am            347        0.0        0.0         90       66.4      29.85       63.4      0.001        0.0        0.0         90       68.1         85       66.4       0.00       0.00
2:10am            347        0.0        0.0         90       66.3      29.85       63.3      0.001        0.0        0.0         90       68.1         85       66.3       0.00       0.00
2:15am            347        0.0        0.0         90       66.1      29.84       63.1     -0.002        0.0        0.0         90       68.1         85       66.1       0.00       0.00
2:20am            347        0.0        0.0         90       66.0      29.84       63.0     -0.002        0.0        0.0         90       68.1         85       66.0       0.00       0.00
2:25am            347        0.0        0.0         90       66.0      29.84       63.0     -0.002        0.0        0.0         90       68.1         85       66.0       0.00       0.00
2:30am            347        0.0        0.0         90       65.8      29.84       62.8     -0.009        0.0        0.0         90       68.1         85       65.8       0.00       0.00
2:35am            347        0.0        0.0         90       65.6      29.84       62.6     -0.008        0.0        0.0         90       68.1         85       65.6       0.00       0.00
2:40am            347        0.0        0.0         90       65.5      29.84       62.5     -0.007        0.0        0.0         90       68.1         85       65.5       0.00       0.00
2:45am            347        0.0        0.0         91       65.3      29.83       62.6     -0.010        0.0        0.0         91       68.1         85       65.3       0.00       0.00
2:50am            347        0.0        0.0         91       65.3      29.83       62.6     -0.009        0.0        0.0         91       68.1         85       65.3       0.00       0.00
2:55am            347        0.0        0.0         91       65.3      29.83       62.6     -0.008        0.0        0.0         91       68.1         85       65.3       0.00       0.00
3:00am            347        0.0        0.0         91       65.3      29.83       62.6     -0.011        0.0        0.0         91       68.1         85       65.3       0.00       0.00
3:05am            347        0.0        0.0         91       65.3      29.83       62.6     -0.011        0.0        0.0         91       68.1         85       65.3       0.00       0.00
3:10am            347        0.0        0.0         92       65.5      29.83       63.1     -0.010        0.0        0.0         92       68.1         85       65.3       0.00       0.00
3:15am            347        0.0        0.0         91       65.5      29.83       62.8     -0.010        0.0        0.0         92       68.1         85       65.3       0.00       0.00
3:20am            347        0.0        0.0         91       65.5      29.83       62.8     -0.009        0.0        0.0         92       68.1         85       65.3       0.00       0.00
3:25am            347        0.0        0.0         92       65.5      29.83       63.1     -0.008        0.0        0.0         92       68.1         85       65.3       0.00       0.00
3:30am            347        0.0        0.0         92       65.5      29.82       63.1     -0.014        0.0        0.0         92       68.1         85       65.3       0.00       0.00
3:35am            347        0.0        0.0         91       65.3      29.82       62.6     -0.013        0.0        0.0         92       68.1         85       65.3       0.00       0.00
3:40am            347        0.0        0.0         91       65.2      29.82       62.5     -0.012        0.0        0.0         92       68.1         85       65.2       0.00       0.00
3:45am            347        0.0        0.0         91       65.0      29.82       62.3     -0.016        0.0        0.0         92       68.1         85       65.0       0.00       0.00
3:50am            347        0.0        0.0         92       64.8      29.82       62.4     -0.014        0.0        0.0         92       68.1         85       64.8       0.00       0.00
3:55am            347        0.0        0.0         92       64.8      29.82       62.4     -0.013        0.0        0.0         92       68.1         85       64.8       0.00       0.00
4:00am            347        0.0        0.0         92       64.8      29.82       62.4     -0.011        0.0        0.0         92       68.1         85       64.8       0.00       0.00
4:05am            347        0.0        0.0         92       64.7      29.82       62.3     -0.010        0.0        0.0         92       68.1         85       64.7       0.00       0.00
4:10am            347        0.0        0.0         92       64.7      29.82       62.3     -0.009        0.0        0.0         92       68.1         85       64.7       0.00       0.00
4:15am            347        0.0        0.0         92       64.7      29.81       62.3     -0.014        0.0        0.0         92       68.1         85       64.7       0.00       0.00
4:20am            347        0.0        0.0         92       64.8      29.81       62.4     -0.012        0.0        0.0         92       68.1         85       64.7       0.00       0.00
4:25am            347        0.0        0.0         92       64.7      29.81       62.3     -0.011        0.0        0.0         92       68.1         85       64.7       0.00       0.00
4:30am            347        0.0        0.0         92       64.5      29.82       62.1     -0.008        0.0        0.0         92       68.1         85       64.5       0.00       0.00
4:35am            347        0.0        0.0         92       64.5      29.82       62.1     -0.007        0.0        0.0         92       68.1         85       64.5       0.00       0.00
4:40am            347        0.0        0.0         92       64.3      29.82       61.9     -0.006        0.0        0.0         92       68.1         85       64.3       0.00       0.00
4:45am            347        0.0        0.0         92       64.3      29.82       61.9     -0.003        0.0        0.0         92       68.1         85       64.3       0.00       0.00
4:50am            347        0.0        0.0         92       64.3      29.82       61.9     -0.003        0.0        0.0         92       68.1         85       64.3       0.00       0.00
4:55am            347        0.0        0.0         92       64.3      29.82       61.9     -0.003        0.0        0.0         92       68.1         85       64.3       0.00       0.00
5:00am            347        0.0        0.0         92       64.2      29.82       61.8     -0.001        0.0        0.0         92       68.1         85       64.2       0.00       0.00
5:05am            347        0.0        0.0         92       64.0      29.82       61.6     -0.001        0.0        0.0         92       68.1         85       64.0       0.00       0.00
5:10am            347        0.0        0.0         92       64.0      29.82       61.6     -0.001        0.0        0.0         92       68.1         85       64.0       0.00       0.00
5:15am            347        0.0        0.0         92       64.0      29.82       61.6      0.001        0.0        0.0         92       68.1         85       64.0       0.00       0.00
5:20am            347        0.0        0.0         92       63.9      29.82       61.5      0.001        0.0        0.0         92       68.1         85       63.9       0.00       0.00
5:25am            347        0.0        0.0         92       63.9      29.82       61.5      0.001        0.0        0.0         92       68.1         85       63.9       0.00       0.00
5:30am            347        0.0        0.0         92       63.7      29.82       61.3     -0.002        0.0        0.0         92       68.1         85       63.7       0.00       0.00
5:35am            347        0.0        0.0         93       63.9      29.82       61.8     -0.002        0.0        0.0         93       68.1         85       63.7       0.00       0.00
5:40am            347        0.0        0.0         93       64.0      29.82       61.9     -0.002        0.0        0.0         93       68.1         85       63.7       0.00       0.00
5:45am            314        0.0        0.0         93       64.0      29.82       61.9      0.002        0.0        0.0         93       68.1         85       63.7       0.00       0.00
5:50am            313        0.0        0.0         93       64.2      29.82       62.1      0.002        0.0        0.0         93       68.1         85       63.7       0.00       0.00
5:55am            313        0.0        0.0         93       64.3      29.82       62.2      0.002        0.0        0.0         93       68.1         85       63.7       0.00       0.00
6:00am            313        0.0        0.0         93       64.5      29.82       62.4      0.003        0.0        0.0         93       68.1         85       63.7       0.00       0.00
6:05am            313        0.0        0.0         93       64.5      29.82       62.4      0.002        0.0        0.0         93       68.1         85       63.7       0.00       0.00
6:10am            313        0.0        0.0         93       64.8      29.82       62.7      0.002        0.0        0.0         93       68.1         85       63.7       0.00       0.00
6:15am            313        0.0        0.0         93       65.0      29.83       62.9      0.006        0.0        0.0         93       68.1         85       63.7       0.00       0.00
6:20am            299        0.0        0.0         93       65.0      29.83       62.9      0.006        0.0        0.0         93       68.1         85       63.7       0.00       0.00
6:25am            299        0.0        1.0         93       65.3      29.83       63.2      0.005        1.0        1.0         93       68.1         85       63.7       0.00       0.00
6:30am            299        0.0        1.0         93       65.3      29.83       63.2      0.010        1.0        1.0         93       68.1         85       63.7       0.00       0.00
6:35am            299        0.0        1.0         93       65.5      29.83       63.4      0.009        1.0        1.0         93       68.1         85       63.7       0.00       0.00
6:40am            299        0.0        1.0         93       65.6      29.83       63.5      0.008        1.0        1.0         93       68.1         85       63.7       0.00       0.00
6:45am            299        0.0        1.0         94       66.1      29.83       64.3      0.009        1.0        1.0         94       68.1         85       63.7       0.00       0.00
6:50am            299        0.0        1.0         94       66.4      29.83       64.6      0.009        1.0        1.0         94       68.1         85       63.7       0.00       0.00
6:55am            297        0.0        1.0         94       66.6      29.83       64.8      0.008        1.0        1.0         94       68.1         85       63.7       0.00       0.00
7:00am            299        0.0        1.0         94       66.8      29.83       65.0      0.006        1.0        1.0         94       68.1         85       63.7       0.00       0.00
7:05am            297        0.0        0.0         94       67.1      29.83       65.3      0.006        1.0        1.0         94       68.1         85       63.7       0.00       0.00
7:10am            324        0.0        0.0         94       67.6      29.83       65.8      0.005        1.0        1.0         94       68.1         85       63.7       0.00       0.00
7:15am            324        0.0        0.0         94       68.1      29.83       66.3      0.003        1.0        1.0         94       68.1         85       63.7       0.00       0.00
7:20am            324        0.0        0.0         94       68.4      29.83       66.6      0.003        1.0        1.0         94       68.4         85       63.7       0.00       0.00
7:25am            326        0.0        0.0         94       68.9      29.83       67.1      0.003        1.0        1.0         94       68.9         85       63.7       0.00       0.00
7:30am            327        0.0        0.0         94       69.4      29.83       67.6     -0.003        1.0        1.0         94       69.4         85       63.7       0.00       0.00
7:35am            327        0.0        1.0         94       69.8      29.83       68.0     -0.002        1.0        1.0         94       69.8         85       63.7       0.00       0.00
7:40am            327        0.0        1.0         94       70.3      29.83       68.5     -0.002        1.0        1.0         94       70.3         85       63.7       0.00       0.00
7:45am            331        1.0        3.0         93       70.6      29.83       68.5     -0.000        3.0        3.0         94       70.6         85       63.7       0.00       0.00
7:50am             42        0.0        3.0         93       70.9      29.83       68.8     -0.000        3.0        3.0         94       70.9         85       63.7       0.00       0.00
7:55am             88        3.0        4.0         92       71.1      29.83       68.7     -0.000        4.0        4.0         94       71.1         85       63.7       0.00       0.00
8:00am             87        0.0        4.0         92       71.5      29.83       69.1     -0.002        4.0        4.0         94       71.5         85       63.7       0.00       0.00
8:05am             76        0.0        5.0         91       71.8      29.83       69.0     -0.002        5.0        5.0         94       71.8         85       63.7       0.00       0.00
8:10am             46        2.0        5.0         90       72.1      29.83       69.0     -0.002        5.0        5.0         94       72.1         85       63.7       0.00       0.00
8:15am             72        2.0        5.0         89       72.3      29.84       68.9      0.009        5.0        5.0         94       72.3         85       63.7       0.00       0.00
8:20am             80        5.0        6.0         88       72.5      29.84       68.7      0.009        6.0        6.0         94       72.5         85       63.7       0.00       0.00
8:25am             72        2.0        6.0         87       72.8      29.84       68.7      0.008        6.0        6.0         94       72.8         85       63.7       0.00       0.00
8:30am             53        0.0        7.0         86       73.0      29.84       68.6      0.014        7.0        7.0         94       73.0         85       63.7       0.00       0.00
8:35am             53        0.0        7.0         85       73.3      29.84       68.5      0.013        7.0        7.0         94       73.3         85       63.7       0.00       0.00
8:40am             55        3.0        7.0         85       73.7      29.84       68.9      0.012        7.0        7.0         94       73.7         85       63.7       0.00       0.00
8:45am             57        3.0        7.0         84       74.2      29.84       69.1      0.011        7.0        7.0         94       74.2         84       63.7       0.00       0.00
8:50am            347        3.0        7.0         83       74.6      29.84       69.1      0.010        7.0        7.0         94       74.6         83       63.7       0.00       0.00
8:55am             18        0.0        7.0         82       75.1      29.84       69.2      0.009        7.0        7.0         94       75.1         82       63.7       0.00       0.00
9:00am             22        0.0        7.0         82       75.6      29.84       69.7      0.009        7.0        7.0         94       75.6         81       63.7       0.00       0.00
9:05am             26        3.0        7.0         80       76.0      29.84       69.4      0.008        7.0        7.0         94       76.1         80       63.7       0.00       0.00
9:10am             26        0.0        7.0         80       76.3      29.84       69.7      0.007        7.0        7.0         94       76.3         79       63.7       0.00       0.00
9:15am             25        3.0        7.0         78       76.7      29.84       69.3      0.007        7.0        7.0         94       76.7         78       63.7       0.00       0.00
9:20am             26        0.0        7.0         79       77.4      29.84       70.4      0.006        7.0        7.0         94       77.4         78       63.7       0.00       0.00
9:25am             28        1.0        7.0         77       77.7      29.84       69.9      0.006        7.0        7.0         94       77.7         77       63.7       0.00       0.00
9:30am             52        3.0        7.0         77       78.3      29.84       70.5      0.000        7.0        7.0         94       78.3         76       63.7       0.00       0.00
9:35am             46        0.0        8.0         76       78.8      29.84       70.6      0.000        8.0        8.0         94       78.8         76       63.7       0.00       0.00
9:40am             49        2.0        8.0         75       79.0      29.84       70.4      0.000        8.0        8.0         94       79.0         74       63.7       0.00       0.00
9:45am             50        3.0        8.0         75       79.6      29.83       71.0     -0.013        8.0        8.0         94       79.6         74       63.7       0.00       0.00
9:50am             50        4.0        8.0         74       79.9      29.83       70.9     -0.012        8.0        8.0         94       79.9         74       63.7       0.00       0.00
9:55am             83        5.0        9.0         72       79.9      29.83       70.1     -0.011        9.0        9.0         94       79.9         72       63.7       0.00       0.00
10:00am           105        2.0        9.0         72       80.3      29.83       70.5     -0.011        9.0        9.0         94       80.3         72       63.7       0.00       0.00
10:05am            86        0.0        4.0         73       80.9      29.83       71.4     -0.010        9.0        9.0         94       80.9         72       63.7       0.00       0.00
10:10am            36        2.0        7.0         72       81.2      29.83       71.3     -0.009        9.0        9.0         94       81.2         72       63.7       0.00       0.00
10:15am            86        3.0       10.0         71       81.4      29.83       71.1     -0.009       10.0       10.0         94       81.4         71       63.7       0.00       0.00
10:20am            57        3.0       10.0         71       81.8      29.83       71.5     -0.009       10.0       10.0         94       81.8         70       63.7       0.00       0.00
10:25am            57        1.0       10.0         72       82.2      29.83       72.3     -0.008       10.0       10.0         94       82.2         70       63.7       0.00       0.00
10:30am            50        3.0       11.0         69       82.2      29.82       71.0     -0.013       11.0       11.0         94       82.4         69       63.7       0.00       0.00
10:35am            52        3.0       11.0         70       82.2      29.82       71.4     -0.012       11.0       11.0         94       82.4         69       63.7       0.00       0.00
10:40am            39        2.0       11.0         70       82.2      29.82       71.4     -0.011       11.0       11.0         94       82.4         69       63.7       0.00       0.00
10:45am            24        4.0       11.0         69       82.4      29.81       71.2     -0.016       11.0       11.0         94       82.4         69       63.7       0.00       0.00
10:50am            45        2.0       11.0         69       82.4      29.81       71.2     -0.015       11.0       11.0         94       82.4         68       63.7       0.00       0.00
10:55am            46        3.0       11.0         69       82.8      29.81       71.6     -0.014       11.0       11.0         94       82.8         68       63.7       0.00       0.00
11:00am            52        3.0       11.0         68       83.0      29.81       71.4     -0.012       11.0       11.0         94       83.0         68       63.7       0.00       0.00
11:05am            46        1.0        7.0         70       83.2      29.81       72.4     -0.011       11.0       11.0         94       83.2         68       63.7       0.00       0.00
11:10am            55        3.0        7.0         67       83.2      29.81       71.1     -0.010       11.0       11.0         94       83.2         67       63.7       0.00       0.00
11:15am            59        6.0       11.0         67       83.2      29.82       71.1     -0.005       11.0       11.0         94       83.2         67       63.7       0.00       0.00
11:20am            42        3.0       11.0         67       83.2      29.82       71.1     -0.005       11.0       11.0         94       83.2         66       63.7       0.00       0.00
11:25am            14        6.0       11.0         67       83.4      29.82       71.3     -0.004       11.0       11.0         94       83.4         66       63.7       0.00       0.00
11:30am            84        5.0       11.0         67       83.4      29.82       71.3     -0.004       11.0       11.0         94       83.4         66       63.7       0.00       0.00
11:35am            62        5.0       11.0         66       83.4      29.82       70.9     -0.004       11.0       11.0         94       83.6         66       63.7       0.00       0.00
11:40am            72        3.0       11.0         65       83.4      29.82       70.4     -0.003       11.0       11.0         94       83.6         65       63.7       0.00       0.00
11:45am            50        7.0       11.0         69       83.6      29.81       72.4     -0.009       11.0       11.0         94       83.6         65       63.7       0.00       0.00
11:50am            57        3.0       11.0         66       83.8      29.81       71.2     -0.008       11.0       11.0         94       83.8         64       63.7       0.00       0.00
11:55am            60        6.0       11.0         65       84.1      29.81       71.1     -0.008       11.0       11.0         94       84.1         64       63.7       0.00       0.00
12:00pm            70        6.0       11.0         66       84.1      29.81       71.5     -0.010       11.0       11.0         94       84.1         64       63.7       0.00       0.00
12:05pm            96        2.0       11.0         64       84.5      29.81       71.0     -0.009       11.0       11.0         94       84.5         64       63.7       0.00       0.00
12:10pm            57        4.0       11.0         65       84.3      29.81       71.3     -0.008       11.0       11.0         94       84.5         64       63.7       0.00       0.00
12:15pm            35        7.0       11.0         64       84.3      29.81       70.8     -0.006       11.0       11.0         94       84.5         64       63.7       0.00       0.00
12:20pm            31        6.0       11.0         64       84.5      29.81       71.0     -0.005       11.0       11.0         94       84.5         64       63.7       0.00       0.00
12:25pm            38        6.0       11.0         65       84.9      29.81       71.8     -0.005       11.0       11.0         94       84.9         64       63.7       0.00       0.00
12:30pm           115        2.0       11.0         64       85.1      29.81       71.6     -0.009       11.0       11.0         94       85.1         64       63.7       0.00       0.00
12:35pm            45        5.0       11.0         63       85.3      29.81       71.3     -0.009       11.0       11.0         94       85.3         63       63.7       0.00       0.00
12:40pm            60        3.0       11.0         64       85.1      29.81       71.6     -0.008       11.0       11.0         94       85.3         63       63.7       0.00       0.00
12:45pm            84        3.0       11.0         64       85.1      29.80       71.6     -0.015       11.0       11.0         94       85.3         63       63.7       0.00       0.00
12:50pm            35        5.0       11.0         64       85.3      29.80       71.8     -0.014       11.0       11.0         94       85.3         63       63.7       0.00       0.00
12:55pm            66        2.0       13.0         65       85.5      29.80       72.4     -0.013       13.0       13.0         94       85.5         63       63.7       0.00       0.00
1:00pm             57        6.0       13.0         64       85.5      29.79       71.9     -0.017       13.0       13.0         94       85.7         63       63.7       0.00       0.00
1:05pm              9        3.0       11.0         65       85.5      29.79       72.4     -0.015       13.0       13.0         94       85.7         63       63.7       0.00       0.00
1:10pm             90        4.0       11.0         64       85.5      29.79       71.9     -0.014       13.0       13.0         94       85.7         63       63.7       0.00       0.00
1:15pm             59        3.0       12.0         65       85.5      29.79       72.4     -0.015       13.0       13.0         94       85.7         63       63.7       0.00       0.00
1:20pm             45        1.0       12.0         65       85.3      29.79       72.2     -0.014       13.0       13.0         94       85.7         63       63.7       0.00       0.00
1:25pm            104        1.0       12.0         65       85.5      29.79       72.4     -0.013       13.0       13.0         94       85.7         63       63.7       0.00       0.00
1:30pm             48        2.0       12.0         65       85.7      29.79       72.6     -0.016       13.0       13.0         94       85.9         63       63.7       0.00       0.00
1:35pm             49        1.0       12.0         67       85.7      29.79       73.5     -0.014       13.0       13.0         94       85.9         63       63.7       0.00       0.00
1:40pm             57        1.0       12.0         66       85.5      29.79       72.9     -0.013       13.0       13.0         94       85.9         63       63.7       0.00       0.00
1:45pm             74        1.0       12.0         67       85.7      29.78       73.5     -0.015       13.0       13.0         94       85.9         63       63.7       0.00       0.00
1:50pm             57        6.0       12.0         67       86.1      29.78       73.9     -0.014       13.0       13.0         94       86.1         63       63.7       0.00       0.00
1:55pm             46        3.0       12.0         67       86.3      29.78       74.1     -0.013       13.0       13.0         94       86.3         63       63.7       0.00       0.00
2:00pm             43        3.0       12.0         66       86.3      29.78       73.6     -0.017       13.0       13.0         94       86.3         63       63.7       0.00       0.00
2:05pm             81        6.0       10.0         67       85.9      29.78       73.7     -0.015       13.0       13.0         94       86.3         63       63.7       0.00       0.00
2:10pm             40        4.0       10.0         67       86.1      29.78       73.9     -0.014       13.0       13.0         94       86.3         63       63.7       0.00       0.00
2:15pm             91        2.0       11.0         67       86.1      29.78       73.9     -0.015       13.0       13.0         94       86.3         63       63.7       0.00       0.00
2:20pm             59        6.0       11.0         65       86.3      29.78       73.2     -0.014       13.0       13.0         94       86.3         63       63.7       0.00       0.00
2:25pm             53        7.0       12.0         65       86.3      29.78       73.2     -0.013       13.0       13.0         94       86.3         63       63.7       0.00       0.00
2:30pm             49       11.0       13.0         64       86.5      29.77       72.9     -0.019       13.0       13.0         94       86.5         63       63.7       0.00       0.00
2:35pm             87        5.0       13.0         65       86.5      29.77       73.3     -0.017       13.0       13.0         94       86.5         63       63.7       0.00       0.00
2:40pm             84        2.0       13.0         65       86.5      29.77       73.3     -0.016       13.0       13.0         94       86.5         63       63.7       0.00       0.00
2:45pm             87        7.0       13.0         65       87.0      29.78       73.8     -0.009       13.0       13.0         94       87.0         63       63.7       0.00       0.00
2:50pm             38        4.0       13.0         64       86.7      29.78       73.1     -0.008       13.0       13.0         94       87.0         63       63.7       0.00       0.00
2:55pm             77        0.0       13.0         67       87.2      29.78       74.9     -0.007       13.0       13.0         94       87.2         63       63.7       0.00       0.00
3:00pm             63        3.0       13.0         63       87.0      29.77       72.9     -0.011       13.0       13.0         94       87.2         63       63.7       0.00       0.00
3:05pm             56        8.0       11.0         64       87.2      29.77       73.5     -0.010       13.0       13.0         94       87.2         63       63.7       0.00       0.00
3:10pm             50        6.0       13.0         66       87.2      29.77       74.5     -0.009       13.0       13.0         94       87.2         63       63.7       0.00       0.00
3:15pm             67        4.0       13.0         64       87.2      29.76       73.5     -0.015       13.0       13.0         94       87.2         63       63.7       0.00       0.00
3:20pm             64        5.0       13.0         63       87.4      29.76       73.3     -0.014       13.0       13.0         94       87.4         63       63.7       0.00       0.00
3:25pm             43        8.0       13.0         64       87.2      29.76       73.5     -0.013       13.0       13.0         94       87.4         63       63.7       0.00       0.00
3:30pm             96        4.0       13.0         63       87.4      29.76       73.3     -0.016       13.0       13.0         94       87.4         62       63.7       0.00       0.00
3:35pm             81        6.0       13.0         62       87.6      29.76       73.0     -0.014       13.0       13.0         94       87.6         62       63.7       0.00       0.00
3:40pm             83        8.0       13.0         63       87.6      29.76       73.5     -0.013       13.0       13.0         94       87.8         62       63.7       0.00       0.00
3:45pm             49        6.0       13.0         63       87.6      29.76       73.5     -0.014       13.0       13.0         94       87.8         61       63.7       0.00       0.00
3:50pm             91       10.0       13.0         64       87.8      29.76       74.1     -0.013       13.0       13.0         94       87.8         61       63.7       0.00       0.00
3:55pm             62        4.0       14.0         64       87.6      29.76       73.9     -0.012       14.0       14.0         94       87.8         61       63.7       0.00       0.00
4:00pm             45        4.0       14.0         64       87.4      29.76       73.7     -0.013       14.0       14.0         94       87.8         61       63.7       0.00       0.00
4:05pm             64        2.0        8.0         64       87.6      29.76       73.9     -0.012       14.0       14.0         94       87.8         61       63.7       0.00       0.00
4:10pm            103        7.0       10.0         63       87.6      29.76       73.5     -0.011       14.0       14.0         94       87.8         61       63.7       0.00       0.00
4:15pm            105        7.0       10.0         63       87.4      29.76       73.3     -0.010       14.0       14.0         94       87.8         61       63.7       0.00       0.00
4:20pm             67        6.0       10.0         64       87.2      29.76       73.5     -0.009       14.0       14.0         94       87.8         61       63.7       0.00       0.00
4:25pm             84        3.0       10.0         64       87.4      29.76       73.7     -0.009       14.0       14.0         94       87.8         61       63.7       0.00       0.00
4:30pm             66        5.0       10.0         63       87.4      29.75       73.3     -0.018       14.0       14.0         94       87.8         61       63.7       0.00       0.00
4:35pm             77        2.0       10.0         63       87.4      29.75       73.3     -0.016       14.0       14.0         94       87.8         61       63.7       0.00       0.00
4:40pm             87        1.0       10.0         64       87.6      29.75       73.9     -0.015       14.0       14.0         94       87.8         61       63.7       0.00       0.00
4:45pm             86        7.0       10.0         64       88.0      29.74       74.3     -0.018       14.0       14.0         94       88.0         61       63.7       0.00       0.00
4:50pm             73        3.0       10.0         63       88.0      29.74       73.8     -0.016       14.0       14.0         94       88.2         61       63.7       0.00       0.00
4:55pm             39        1.0       10.0         63       88.2      29.74       74.0     -0.015       14.0       14.0         94       88.2         61       63.7       0.00       0.00
5:00pm             90        5.0       10.0         62       88.4      29.74       73.7     -0.019       14.0       14.0         94       88.4         61       63.7       0.00       0.00
5:05pm             79        2.0        7.0         61       88.4      29.74       73.2     -0.017       14.0       14.0         94       88.4         60       63.7       0.00       0.00
5:10pm             97        2.0       10.0         62       88.4      29.74       73.7     -0.016       14.0       14.0         94       88.4         60       63.7       0.00       0.00
5:15pm             81        3.0       10.0         62       88.4      29.74       73.7     -0.011       14.0       14.0         94       88.4         60       63.7       0.00       0.00
5:20pm             55        2.0       12.0         62       88.4      29.74       73.7     -0.010       14.0       14.0         94       88.4         60       63.7       0.00       0.00
5:25pm             60        2.0       12.0         62       88.4      29.74       73.7     -0.009       14.0       14.0         94       88.4         60       63.7       0.00       0.00
5:30pm             11        6.0       13.0         62       88.0      29.74       73.4     -0.013       14.0       14.0         94       88.4         60       63.7       0.00       0.00
5:35pm             49        2.0       13.0         63       88.2      29.74       74.0     -0.012       14.0       14.0         94       88.4         60       63.7       0.00       0.00
5:40pm             67        7.0       13.0         61       88.4      29.74       73.2     -0.011       14.0       14.0         94       88.4         60       63.7       0.00       0.00
5:45pm             66        5.0       13.0         62       88.2      29.74       73.5     -0.011       14.0       14.0         94       88.4         60       63.7       0.00       0.00
5:50pm             29        7.0       13.0         62       88.2      29.74       73.5     -0.010       14.0       14.0         94       88.4         60       63.7       0.00       0.00
5:55pm             40        5.0       13.0         62       88.0      29.74       73.4     -0.010       14.0       14.0         94       88.4         60       63.7       0.00       0.00
6:00pm             26        4.0       13.0         63       88.2      29.73       74.0     -0.014       14.0       14.0         94       88.4         60       63.7       0.00       0.00
6:05pm             62        5.0       11.0         62       88.2      29.73       73.5     -0.013       14.0       14.0         94       88.4         60       63.7       0.00       0.00
6:10pm             60        6.0       11.0         62       88.2      29.73       73.5     -0.012       14.0       14.0         94       88.4         60       63.7       0.00       0.00
6:15pm             52        7.0       13.0         62       88.2      29.73       73.5     -0.014       14.0       14.0         94       88.4         60       63.7       0.00       0.00
6:20pm             46        8.0       13.0         62       88.2      29.73       73.5     -0.013       14.0       14.0         94       88.4         60       63.7       0.00       0.00
6:25pm             55        5.0       13.0         63       88.0      29.73       73.8     -0.012       14.0       14.0         94       88.4         60       63.7       0.00       0.00
6:30pm             55        4.0       13.0         63       88.0      29.73       73.8     -0.014       14.0       14.0         94       88.4         60       63.7       0.00       0.00
6:35pm             42        6.0       13.0         63       87.8      29.73       73.6     -0.012       14.0       14.0         94       88.4         60       63.7       0.00       0.00
6:40pm             48        2.0       13.0         63       87.6      29.73       73.5     -0.011       14.0       14.0         94       88.4         60       63.7       0.00       0.00
6:45pm             55        6.0       13.0         63       87.4      29.73       73.3     -0.011       14.0       14.0         94       88.4         60       63.7       0.00       0.00
6:50pm             50        5.0       13.0         63       87.4      29.73       73.3     -0.010       14.0       14.0         94       88.4         60       63.7       0.00       0.00
6:55pm             84        0.0       13.0         64       87.2      29.73       73.5     -0.009       14.0       14.0         94       88.4         60       63.7       0.00       0.00
7:00pm             48        8.0       13.0         63       87.2      29.73       73.1     -0.006       14.0       14.0         94       88.4         60       63.7       0.00       0.00
7:05pm             90        2.0        9.0         64       87.0      29.73       73.4     -0.006       14.0       14.0         94       88.4         60       63.7       0.00       0.00
7:10pm             57        1.0       11.0         64       87.0      29.73       73.4     -0.005       14.0       14.0         94       88.4         60       63.7       0.00       0.00
7:15pm             35        9.0       11.0         65       86.7      29.73       73.5     -0.006       14.0       14.0         94       88.4         60       63.7       0.00       0.00
7:20pm             46        3.0       11.0         64       86.7      29.73       73.1     -0.005       14.0       14.0         94       88.4         60       63.7       0.00       0.00
7:25pm             88        3.0       11.0         65       86.5      29.73       73.3     -0.005       14.0       14.0         94       88.4         60       63.7       0.00       0.00
7:30pm             24        6.0       11.0         65       86.5      29.72       73.3     -0.007       14.0       14.0         94       88.4         60       63.7       0.00       0.00
7:35pm             72        0.0       11.0         65       86.3      29.72       73.2     -0.006       14.0       14.0         94       88.4         60       63.7       0.00       0.00
7:40pm             77        5.0       11.0         66       86.3      29.72       73.6     -0.006       14.0       14.0         94       88.4         60       63.7       0.00       0.00
7:45pm             72        0.0       11.0         67       86.1      29.73       73.9     -0.003       14.0       14.0         94       88.4         60       63.7       0.00       0.00
7:50pm             90        1.0       11.0         67       85.9      29.73       73.7     -0.003       14.0       14.0         94       88.4         60       63.7       0.00       0.00
7:55pm             59        2.0       11.0         68       85.9      29.73       74.1     -0.003       14.0       14.0         94       88.4         60       63.7       0.00       0.00
8:00pm             38        3.0       11.0         69       85.7      29.73       74.4     -0.002       14.0       14.0         94       88.4         60       63.7       0.00       0.00
8:05pm             38        3.0        6.0         69       85.5      29.73       74.2     -0.002       14.0       14.0         94       88.4         60       63.7       0.00       0.00
8:10pm             50        0.0        7.0         70       85.3      29.73       74.4     -0.002       14.0       14.0         94       88.4         60       63.7       0.00       0.00
8:15pm             62        6.0        8.0         70       85.1      29.72       74.2     -0.005       14.0       14.0         94       88.4         60       63.7       0.00       0.00
8:20pm             50        0.0        8.0         70       84.9      29.72       74.0     -0.004       14.0       14.0         94       88.4         60       63.7       0.00       0.00
8:25pm             55        2.0        8.0         71       84.7      29.72       74.3     -0.004       14.0       14.0         94       88.4         60       63.7       0.00       0.00
8:30pm             56        2.0        8.0         71       84.5      29.72       74.1     -0.003       14.0       14.0         94       88.4         60       63.7       0.00       0.00
8:35pm             56        5.0        8.0         71       84.3      29.72       73.9     -0.003       14.0       14.0         94       88.4         60       63.7       0.00       0.00
8:40pm             52        2.0        8.0         72       84.3      29.72       74.3     -0.002       14.0       14.0         94       88.4         60       63.7       0.00       0.00
8:45pm             39        3.0        8.0         72       84.1      29.72       74.1     -0.002       14.0       14.0         94       88.4         60       63.7       0.00       0.00
8:50pm             40        1.0        8.0         72       84.0      29.72       74.0     -0.002       14.0       14.0         94       88.4         60       63.7       0.00       0.00
8:55pm             39        0.0        8.0         72       84.0      29.72       74.0     -0.002       14.0       14.0         94       88.4         60       63.7       0.00       0.00
9:00pm             40        0.0        8.0         73       83.8      29.72       74.2     -0.003       14.0       14.0         94       88.4         60       63.7       0.00       0.00
9:05pm             42        1.0        7.0         73       83.6      29.72       74.0     -0.002       14.0       14.0         94       88.4         60       63.7       0.00       0.00
9:10pm             45        2.0        7.0         73       83.6      29.72       74.0     -0.002       14.0       14.0         94       88.4         60       63.7       0.00       0.00
9:15pm             43        2.0        7.0         73       83.4      29.73       73.8      0.002       14.0       14.0         94       88.4         60       63.7       0.00       0.00
9:20pm             67        7.0       10.0         73       83.4      29.73       73.8      0.002       14.0       14.0         94       88.4         60       63.7       0.00       0.00
9:25pm             81        8.0       11.0         73       83.4      29.73       73.8      0.002       14.0       14.0         94       88.4         60       63.7       0.00       0.00
9:30pm             97        6.0       11.0         73       83.2      29.73       73.7      0.003       14.0       14.0         94       88.4         60       63.7       0.00       0.00
9:35pm             56        5.0       17.0         73       83.2      29.73       73.7      0.003       17.0       17.0         94       88.4         60       63.7       0.00       0.00
9:40pm             38        9.0       17.0         73       82.8      29.73       73.3      0.003       17.0       17.0         94       88.4         60       63.7       0.00       0.00
9:45pm             63        3.0       17.0         71       82.6      29.74       72.3      0.011       17.0       17.0         94       88.4         60       63.7       0.00       0.00
9:50pm             81       12.0       17.0         70       82.4      29.74       71.6      0.010       17.0       17.0         94       88.4         60       63.7       0.00       0.00
9:55pm             86        6.0       17.0         68       82.2      29.74       70.6      0.009       17.0       17.0         94       88.4         60       63.7       0.00       0.00
10:00pm            60       10.0       17.0         68       82.0      29.74       70.4      0.010       17.0       17.0         94       88.4         60       63.7       0.00       0.00
10:05pm            56        4.0       12.0         66       81.6      29.74       69.1      0.009       17.0       17.0         94       88.4         60       63.7       0.00       0.00
10:10pm            48        2.0       12.0         67       81.4      29.74       69.4      0.009       17.0       17.0         94       88.4         60       63.7       0.00       0.00
10:15pm            60        3.0       12.0         66       81.1      29.74       68.7      0.004       17.0       17.0         94       88.4         60       63.7       0.00       0.00
10:20pm            60        3.0       12.0         66       80.9      29.74       68.5      0.004       17.0       17.0         94       88.4         60       63.7       0.00       0.00
10:25pm            52        0.0       12.0         66       80.7      29.74       68.3      0.003       17.0       17.0         94       88.4         60       63.7       0.00       0.00
10:30pm            72        0.0       12.0         66       80.5      29.73       68.1     -0.005       17.0       17.0         94       88.4         60       63.7       0.00       0.00
10:35pm            83        3.0       12.0         66       80.3      29.73       67.9     -0.004       17.0       17.0         94       88.4         60       63.7       0.00       0.00
10:40pm            86        3.0       12.0         66       80.1      29.73       67.7     -0.004       17.0       17.0         94       88.4         60       63.7       0.00       0.00
10:45pm            87        5.0       12.0         66       80.1      29.73       67.7     -0.004       17.0       17.0         94       88.4         60       63.7       0.00       0.00
10:50pm            83        2.0       12.0         66       79.9      29.73       67.5     -0.003       17.0       17.0         94       88.4         60       63.7       0.00       0.00
10:55pm            26        9.0       12.0         67       79.8      29.73       67.9     -0.003       17.0       17.0         94       88.4         60       63.7       0.00       0.00
11:00pm            60        7.0       12.0         67       79.6      29.72       67.7     -0.007       17.0       17.0         94       88.4         60       63.7       0.00       0.00
11:05pm           103        2.0        9.0         67       79.4      29.72       67.5     -0.006       17.0       17.0         94       88.4         60       63.7       0.00       0.00
11:10pm            77        5.0        9.0         67       79.4      29.72       67.5     -0.006       17.0       17.0         94       88.4         60       63.7       0.00       0.00
11:15pm            96        0.0       10.0         67       79.2      29.73       67.3      0.002       17.0       17.0         94       88.4         60       63.7       0.00       0.00
11:20pm            90        1.0       10.0         68       79.0      29.73       67.5      0.001       17.0       17.0         94       88.4         60       63.7       0.00       0.00
11:25pm           108        4.0       10.0         68       78.8      29.73       67.4      0.001       17.0       17.0         94       88.4         60       63.7       0.00       0.00
11:30pm            87        3.0       10.0         68       78.8      29.74       67.4      0.011       17.0       17.0         94       88.4         60       63.7       0.00       0.00
11:35pm            88        0.0       10.0         68       78.6      29.74       67.2      0.010       17.0       17.0         94       88.4         60       63.7       0.00       0.00
11:40pm           107        5.0       10.0         68       78.5      29.74       67.1      0.009       17.0       17.0         94       88.4         60       63.7       0.00       0.00
11:45pm            81        1.0       10.0         68       78.5      29.75       67.1      0.014       17.0       17.0         94       88.4         60       63.7       0.00       0.00
11:50pm            76        1.0       10.0         69       78.1      29.75       67.1      0.012       17.0       17.0         94       88.4         60       63.7       0.00       0.00
11:55pm            46        6.0       13.0         69       77.9      29.75       66.9      0.011       17.0       17.0         94       88.4         60       63.7       0.00       0.00


Updated Automatically by Ambient Software's Virtual Weather Station  V14.01
All rights reserved. Unauthorized duplication or distribution is prohibited
Never base important decisions on this or any weather information obtained from the Internet